| time (UTC) | temp F | wind direction | speed knots | gust knots | rain 1hr in | rain 24hr in | rain mn in | humidity % | barometer mb |
| 20260505180816 | 76 | 221 | 7.8 | 12.2 | 0.00 | 0.04 | 0.04 | 76 | 1005.5 |
| 20260505180312 | 76 | 217 | 8.7 | 9.6 | 0.00 | 0.04 | 0.04 | 76 | 1005.4 |
| 20260505175809 | 76 | 217 | 5.2 | 9.6 | 0.00 | 0.04 | 0.04 | 76 | 1005.5 |
| 20260505175306 | 75 | 213 | 6.1 | 12.2 | 0.00 | 0.04 | 0.04 | 76 | 1005.6 |
| 20260505174802 | 76 | 223 | 4.3 | 12.2 | 0.00 | 0.04 | 0.04 | 75 | 1005.8 |
| 20260505174259 | 76 | 206 | 7.0 | 12.2 | 0.00 | 0.04 | 0.04 | 75 | 1005.7 |
| 20260505173755 | 77 | 210 | 7.0 | 13.0 | 0.00 | 0.04 | 0.04 | 75 | 1005.8 |
| 20260505173252 | 77 | 214 | 9.6 | 12.2 | 0.00 | 0.04 | 0.04 | 73 | 1005.5 |
| 20260505172749 | 78 | 226 | 6.1 | 11.3 | 0.00 | 0.04 | 0.04 | 74 | 1005.7 |
| 20260505172246 | 78 | 212 | 6.1 | 9.6 | 0.00 | 0.04 | 0.04 | 73 | 1005.8 |
| 20260505171746 | 78 | 223 | 3.5 | 6.1 | 0.00 | 0.04 | 0.04 | 72 | 1005.7 |
| 20260505171243 | 77 | 188 | 2.6 | 10.4 | 0.00 | 0.04 | 0.04 | 75 | 1005.8 |
| 20260505170740 | 77 | 234 | 6.1 | 9.6 | 0.00 | 0.04 | 0.04 | 74 | 1006.0 |
| 20260505170237 | 78 | 220 | 1.7 | 5.2 | 0.00 | 0.04 | 0.04 | 75 | 1005.8 |
| 20260505165732 | 77 | 216 | 7.0 | 8.7 | 0.00 | 0.04 | 0.04 | 75 | 1005.8 |
| 20260505165228 | 77 | 211 | 5.2 | 9.6 | 0.00 | 0.04 | 0.04 | 73 | 1005.6 |
| 20260505164724 | 78 | 216 | 3.5 | 6.1 | 0.00 | 0.04 | 0.04 | 76 | 1005.8 |
| 20260505164221 | 78 | 185 | 1.7 | 4.3 | 0.00 | 0.04 | 0.04 | 75 | 1005.9 |
| 20260505163719 | 78 | 234 | 2.6 | 4.3 | 0.00 | 0.04 | 0.04 | 77 | 1005.9 |
| 20260505163218 | 78 | 186 | 0.0 | 5.2 | 0.00 | 0.04 | 0.04 | 77 | 1006.0 |
| 20260505162714 | 76 | 225 | 1.7 | 4.3 | 0.00 | 0.04 | 0.04 | 80 | 1006.2 |
| 20260505162212 | 75 | 228 | 2.6 | 4.3 | 0.00 | 0.04 | 0.04 | 84 | 1006.2 |
| 20260505161708 | 75 | 243 | 2.6 | 4.3 | 0.00 | 0.04 | 0.04 | 83 | 1006.4 |
| 20260505161206 | 75 | 93 | 0.9 | 1.7 | 0.00 | 0.04 | 0.04 | 81 | 1006.4 |
| 20260505160703 | 75 | 112 | 0.9 | 2.6 | 0.00 | 0.04 | 0.04 | 82 | 1006.2 |
| 20260505160201 | 73 | 221 | 0.9 | 1.7 | 0.00 | 0.04 | 0.04 | 87 | 1006.4 |
| 20260505153140 | 70 | 39 | 3.5 | 5.2 | 0.00 | 0.04 | 0.04 | 91 | 1006.6 |
| 20260505152637 | 69 | 84 | 1.7 | 4.3 | 0.00 | 0.04 | 0.04 | 92 | 1006.8 |
| 20260505152132 | 69 | 33 | 3.5 | 5.2 | 0.00 | 0.04 | 0.04 | 92 | 1006.7 |
| 20260505151628 | 69 | 70 | 3.5 | 3.5 | 0.00 | 0.04 | 0.04 | 91 | 1006.8 |
| 20260505151126 | 69 | 9 | 4.3 | 5.2 | 0.00 | 0.04 | 0.04 | 91 | 1006.8 |
| 20260505150621 | 68 | 16 | 3.5 | 4.3 | 0.00 | 0.04 | 0.04 | 92 | 1006.8 |
| 20260505150119 | 68 | 56 | 2.6 | 5.2 | 0.00 | 0.04 | 0.04 | 92 | 1006.9 |
| 20260505140547 | 64 | 88 | 1.7 | 5.2 | 0.00 | 0.04 | 0.04 | 98 | 1007.1 |
| 20260505125000 | 63 | 113 | 2.6 | 4.3 | 0.05 | 0.03 | 0.03 | 96 | 1007.3 |
| 20260505124457 | 63 | 120 | 1.7 | 2.6 | 0.05 | 0.03 | 0.03 | 96 | 1007.3 |
| 20260505123953 | 63 | 125 | 2.6 | 4.3 | 0.02 | 0.02 | 0.02 | 95 | 1007.2 |
| 20260505123450 | 63 | 108 | 5.2 | 6.1 | 0.02 | 0.02 | 0.02 | 94 | 1007.1 |
| 20260505122946 | 64 | 84 | 1.7 | 4.3 | 0.02 | 0.02 | 0.02 | 93 | 1007.2 |
| 20260505122443 | 64 | 68 | 3.5 | 5.2 | 0.00 | 0.01 | 0.01 | 92 | 1007.0 |
| 20260505121940 | 64 | 116 | 5.2 | 7.0 | 0.00 | 0.01 | 0.01 | 89 | 1006.6 |
| 20260505121437 | 64 | 116 | 5.2 | 7.0 | 0.00 | 0.01 | 0.01 | 89 | 1006.6 |
| 20260505120933 | 65 | 47 | 3.5 | 7.8 | 0.00 | 0.01 | 0.01 | 87 | 1006.8 |
| 20260505120430 | 65 | 67 | 3.5 | 4.3 | 0.00 | 0.01 | 0.01 | 86 | 1006.6 |
| 20260505115854 | 66 | 65 | 4.3 | 6.1 | 0.00 | 0.01 | 0.01 | 85 | 1006.5 |
| 20260505115351 | 66 | 65 | 4.3 | 6.1 | 0.00 | 0.01 | 0.01 | 85 | 1006.5 |
| 20260505114849 | 66 | 57 | 0.9 | 5.2 | 0.00 | 0.01 | 0.01 | 85 | 1006.3 |
| 20260505114345 | 66 | 101 | 2.6 | 4.3 | 0.00 | 0.01 | 0.01 | 84 | 1006.2 |
| 20260505113841 | 66 | 112 | 3.5 | 6.1 | 0.00 | 0.01 | 0.01 | 84 | 1006.3 |
| 20260505113338 | 66 | 96 | 3.5 | 5.2 | 0.00 | 0.01 | 0.01 | 83 | 1006.2 |
| 20260505112834 | 66 | 106 | 5.2 | 5.2 | 0.00 | 0.01 | 0.01 | 83 | 1006.1 |
| 20260505112332 | 66 | 108 | 4.3 | 6.1 | 0.00 | 0.01 | 0.01 | 83 | 1006.0 |
| 20260505111827 | 66 | 108 | 6.1 | 6.1 | 0.00 | 0.01 | 0.01 | 82 | 1006.0 |
| 20260505111323 | 66 | 109 | 1.7 | 5.2 | 0.00 | 0.01 | 0.01 | 83 | 1006.1 |
| 20260505110819 | 66 | 153 | 1.7 | 5.2 | 0.00 | 0.01 | 0.01 | 83 | 1006.0 |
| 20260505110317 | 65 | 112 | 2.6 | 3.5 | 0.00 | 0.01 | 0.01 | 83 | 1005.7 |
| 20260505101751 | 65 | 161 | 0.9 | 2.6 | 0.00 | 0.01 | 0.01 | 84 | 1005.9 |
| 20260505101246 | 65 | 66 | 0.9 | 2.6 | 0.00 | 0.01 | 0.01 | 84 | 1006.0 |
| 20260505100743 | 65 | 133 | 3.5 | 3.5 | 0.00 | 0.01 | 0.01 | 85 | 1005.8 |
| 20260505100240 | 65 | 26 | 2.6 | 5.2 | 0.00 | 0.01 | 0.01 | 85 | 1006.1 |
| 20260505095735 | 65 | 135 | 0.0 | 1.7 | 0.00 | 0.01 | 0.01 | 87 | 1006.0 |
| 20260505095234 | 65 | 262 | 0.0 | 0.9 | 0.00 | 0.01 | 0.01 | 88 | 1005.9 |
| 20260505094729 | 66 | 354 | 0.0 | 0.9 | 0.00 | 0.01 | 0.01 | 88 | 1005.6 |
| 20260505094225 | 66 | 269 | 0.0 | 1.7 | 0.00 | 0.01 | 0.01 | 87 | 1005.7 |
| 20260505093722 | 67 | 102 | 1.7 | 2.6 | 0.00 | 0.01 | 0.01 | 82 | 1005.2 |
| 20260505093219 | 67 | 115 | 2.6 | 2.6 | 0.00 | 0.01 | 0.01 | 80 | 1005.2 |
| 20260505092716 | 67 | 110 | 0.0 | 0.0 | 0.00 | 0.01 | 0.01 | 77 | 1004.9 |
| 20260505092215 | 67 | 110 | 0.0 | 0.0 | 0.00 | 0.01 | 0.01 | 77 | 1004.8 |
| 20260505091711 | 67 | 145 | 0.9 | 1.7 | 0.00 | 0.01 | 0.01 | 78 | 1004.9 |
| 20260505091209 | 66 | 357 | 1.7 | 1.7 | 0.00 | 0.01 | 0.01 | 78 | 1004.8 |
| 20260505090707 | 67 | 189 | 1.7 | 2.6 | 0.00 | 0.01 | 0.01 | 78 | 1004.6 |
| 20260505090205 | 67 | 162 | 1.7 | 2.6 | 0.00 | 0.01 | 0.01 | 75 | 1004.6 |
| 20260505085702 | 67 | 117 | 1.7 | 1.7 | 0.00 | 0.01 | 0.01 | 75 | 1004.6 |
| 20260505085200 | 68 | 81 | 2.6 | 4.3 | 0.00 | 0.01 | 0.01 | 74 | 1004.6 |
| 20260505084657 | 68 | 86 | 1.7 | 6.1 | 0.00 | 0.01 | 0.01 | 74 | 1004.6 |
| 20260505084156 | 68 | 73 | 1.7 | 3.5 | 0.00 | 0.01 | 0.01 | 75 | 1004.8 |
| 20260505083653 | 67 | 104 | 2.6 | 3.5 | 0.00 | 0.01 | 0.01 | 75 | 1004.9 |
| 20260505083149 | 67 | 49 | 1.7 | 3.5 | 0.00 | 0.01 | 0.01 | 75 | 1004.9 |
| 20260505082645 | 67 | 92 | 1.7 | 7.8 | 0.00 | 0.01 | 0.01 | 77 | 1004.7 |
| 20260505082142 | 65 | 83 | 3.5 | 4.3 | 0.02 | 0.01 | 0.01 | 80 | 1004.8 |
| 20260505081638 | 65 | 118 | 0.9 | 2.6 | 0.02 | 0.01 | 0.01 | 82 | 1004.6 |
| 20260505081136 | 65 | 132 | 1.7 | 3.5 | 0.00 | 0.01 | 0.01 | 82 | 1005.0 |
| 20260505080632 | 65 | 124 | 2.6 | 3.5 | 0.05 | 0.01 | 0.01 | 81 | 1005.6 |
| 20260505080128 | 66 | 42 | 0.9 | 1.7 | 0.05 | 0.01 | 0.01 | 79 | 1005.7 |
| 20260505075625 | 66 | 17 | 0.9 | 1.7 | 0.02 | 0.00 | 0.00 | 75 | 1005.9 |
| 20260505075122 | 66 | 162 | 0.9 | 2.6 | 0.00 | 0.00 | 0.00 | 74 | 1005.6 |
| 20260505074618 | 66 | 157 | 1.7 | 2.6 | 0.00 | 0.00 | 0.00 | 76 | 1005.8 |
| 20260505074116 | 66 | 149 | 1.7 | 2.6 | 0.00 | 0.00 | 0.00 | 78 | 1005.8 |
| 20260505073614 | 66 | 201 | 0.9 | 1.7 | 0.00 | 0.00 | 0.00 | 78 | 1005.9 |
| 20260505073112 | 66 | 92 | 3.5 | 4.3 | 0.00 | 0.00 | 0.00 | 76 | 1005.9 |
| 20260505072607 | 65 | 95 | 1.7 | 2.6 | 0.00 | 0.00 | 0.00 | 80 | 1006.1 |
| 20260505072103 | 64 | 180 | 0.0 | 2.6 | 0.00 | 0.00 | 0.00 | 81 | 1006.0 |
| 20260505071559 | 64 | 107 | 0.9 | 3.5 | 0.00 | 0.00 | 0.00 | 82 | 1006.1 |
| 20260505071057 | 64 | 199 | 0.9 | 1.7 | 0.00 | 0.00 | 0.00 | 83 | 1006.2 |
| 20260505070554 | 64 | 111 | 1.7 | 1.7 | 0.00 | 0.00 | 0.00 | 83 | 1006.2 |
| 20260505070050 | 64 | 103 | 0.0 | 0.9 | 0.00 | 0.00 | 0.00 | 83 | 1006.1 |
| 20260505065546 | 64 | 88 | 1.7 | 1.7 | 0.00 | 0.00 | 0.00 | 82 | 1006.3 |
| 20260505065043 | 64 | 138 | 0.0 | 0.9 | 0.00 | 0.00 | 0.00 | 81 | 1006.3 |
| 20260505064540 | 64 | 89 | 0.0 | 1.7 | 0.00 | 0.00 | 0.00 | 78 | 1006.3 |
| 20260505064038 | 64 | 98 | 0.0 | 2.6 | 0.00 | 0.00 | 0.00 | 79 | 1006.5 |
| 20260505063535 | 64 | 125 | 2.6 | 3.5 | 0.00 | 0.00 | 0.00 | 80 | 1006.6 |
| 20260505063031 | 64 | 135 | 1.7 | 1.7 | 0.00 | 0.00 | 0.00 | 82 | 1007.0 |
| 20260505062528 | 64 | 139 | 0.0 | 0.9 | 0.00 | 0.00 | 0.00 | 82 | 1007.4 |
| 20260505062025 | 64 | 103 | 0.0 | 1.7 | 0.00 | 0.00 | 0.00 | 81 | 1007.5 |
| 20260505061523 | 64 | 168 | 0.9 | 1.7 | 0.00 | 0.00 | 0.00 | 81 | 1007.7 |
| 20260505061020 | 65 | 157 | 0.9 | 1.7 | 0.00 | 0.00 | 0.00 | 79 | 1007.8 |
| 20260505060518 | 65 | 187 | 1.7 | 2.6 | 0.00 | 0.00 | 0.00 | 80 | 1008.3 |
| 20260505060014 | 65 | 198 | 0.9 | 1.7 | 0.00 | 0.00 | 0.00 | 77 | 1008.4 |
| 20260505055509 | 65 | 356 | 0.0 | 2.6 | 0.00 | 0.00 | 0.00 | 77 | 1008.1 |
| 20260505055006 | 64 | 11 | 1.7 | 1.7 | 0.00 | 0.00 | 0.00 | 77 | 1007.9 |
| 20260505054504 | 64 | 173 | 0.0 | 2.6 | 0.00 | 0.00 | 0.00 | 78 | 1007.6 |
| 20260505054002 | 64 | 114 | 1.7 | 1.7 | 0.00 | 0.00 | 0.00 | 78 | 1007.5 |
| 20260505053458 | 65 | 202 | 0.0 | 1.7 | 0.00 | 0.00 | 0.00 | 77 | 1007.7 |
| 20260505052955 | 65 | 72 | 1.7 | 1.7 | 0.00 | 0.00 | 0.00 | 76 | 1007.6 |
| 20260505052452 | 66 | 66 | 0.0 | 2.6 | 0.00 | 0.00 | 0.00 | 74 | 1007.5 |
| 20260505051949 | 66 | 160 | 1.7 | 2.6 | 0.00 | 0.00 | 0.00 | 73 | 1007.5 |
| 20260505051446 | 66 | 115 | 1.7 | 3.5 | 0.00 | 0.00 | 0.00 | 73 | 1007.5 |
| 20260505050944 | 66 | 102 | 1.7 | 2.6 | 0.00 | 0.00 | 0.00 | 73 | 1007.5 |
| 20260505050443 | 66 | 113 | 0.0 | 1.7 | 0.00 | 0.00 | 0.00 | 73 | 1007.5 |
| 20260505041410 | 67 | 146 | 0.0 | 1.7 | 0.00 | 0.00 | 0.00 | 71 | 1008.1 |
| 20260505040907 | 67 | 142 | 0.0 | 0.9 | 0.00 | 0.00 | 0.00 | 70 | 1008.1 |
| 20260505040405 | 68 | 129 | 0.0 | 2.6 | 0.00 | 0.00 | 0.00 | 69 | 1008.2 |
| 20260505035901 | 67 | 236 | 0.9 | 3.5 | 0.00 | 0.00 | 0.00 | 71 | 1008.3 |
| 20260505035357 | 68 | 70 | 0.9 | 2.6 | 0.00 | 0.00 | 0.00 | 70 | 1008.3 |
| 20260505034855 | 66 | 197 | 2.6 | 2.6 | 0.00 | 0.00 | 0.00 | 73 | 1008.3 |
| 20260505034351 | 66 | 212 | 0.0 | 1.7 | 0.00 | 0.00 | 0.00 | 72 | 1008.3 |
| 20260505033848 | 67 | 185 | 0.9 | 1.7 | 0.00 | 0.00 | 0.00 | 71 | 1008.4 |
| 20260505033345 | 68 | 181 | 0.0 | 1.7 | 0.00 | 0.00 | 0.00 | 70 | 1008.6 |
| 20260505032843 | 68 | 158 | 1.7 | 1.7 | 0.00 | 0.00 | 0.00 | 69 | 1008.5 |
| 20260505032339 | 67 | 135 | 0.9 | 1.7 | 0.00 | 0.00 | 0.00 | 70 | 1008.6 |
| 20260505031836 | 67 | 173 | 0.0 | 1.7 | 0.00 | 0.00 | 0.00 | 71 | 1008.5 |
| 20260505031333 | 68 | 194 | 0.0 | 0.9 | 0.00 | 0.00 | 0.00 | 70 | 1008.6 |
| 20260505030830 | 67 | 177 | 0.9 | 1.7 | 0.00 | 0.00 | 0.00 | 71 | 1008.5 |
| 20260505030326 | 68 | 163 | 0.9 | 1.7 | 0.00 | 0.00 | 0.00 | 69 | 1008.7 |
| 20260505025822 | 66 | 161 | 0.0 | 3.5 | 0.00 | 0.00 | 0.00 | 71 | 1008.6 |
| 20260505025320 | 67 | 186 | 0.0 | 1.7 | 0.00 | 0.00 | 0.00 | 73 | 1008.7 |
| 20260505024818 | 68 | 152 | 1.7 | 2.6 | 0.00 | 0.00 | 0.00 | 72 | 1008.7 |
| 20260505024315 | 68 | 147 | 1.7 | 2.6 | 0.00 | 0.00 | 0.00 | 71 | 1008.7 |
| 20260505023812 | 68 | 212 | 0.9 | 1.7 | 0.00 | 0.00 | 0.00 | 70 | 1008.6 |
| 20260505023309 | 68 | 185 | 0.0 | 2.6 | 0.00 | 0.00 | 0.00 | 68 | 1008.4 |
| 20260505022807 | 68 | 160 | 1.7 | 1.7 | 0.00 | 0.00 | 0.00 | 70 | 1008.3 |
| 20260505022304 | 68 | 212 | 0.0 | 1.7 | 0.00 | 0.00 | 0.00 | 69 | 1008.2 |
| 20260505021800 | 68 | 154 | 0.9 | 1.7 | 0.00 | 0.00 | 0.00 | 67 | 1008.2 |
| 20260505021257 | 68 | 180 | 0.0 | 1.7 | 0.00 | 0.00 | 0.00 | 70 | 1008.1 |
| 20260505020753 | 69 | 168 | 0.0 | 1.7 | 0.00 | 0.00 | 0.00 | 67 | 1008.1 |
| 20260505020248 | 69 | 212 | 0.0 | 1.7 | 0.00 | 0.00 | 0.00 | 67 | 1007.7 |
| 20260505015746 | 70 | 141 | 0.9 | 2.6 | 0.00 | 0.00 | 0.00 | 66 | 1007.9 |
| 20260505015242 | 69 | 89 | 0.0 | 0.0 | 0.00 | 0.00 | 0.00 | 65 | 1007.7 |
| 20260505014740 | 70 | 168 | 0.0 | 1.7 | 0.00 | 0.00 | 0.00 | 65 | 1007.6 |
| 20260505014237 | 70 | 15 | 0.0 | 0.9 | 0.00 | 0.00 | 0.00 | 64 | 1007.6 |
| 20260505013733 | 70 | 200 | 0.9 | 1.7 | 0.00 | 0.00 | 0.00 | 66 | 1007.5 |
| 20260505013231 | 71 | 141 | 0.0 | 1.7 | 0.00 | 0.00 | 0.00 | 63 | 1007.6 |
| 20260505012729 | 71 | 187 | 1.7 | 3.5 | 0.00 | 0.00 | 0.00 | 62 | 1007.4 |
| 20260505012226 | 71 | 24 | 0.9 | 2.6 | 0.00 | 0.00 | 0.00 | 63 | 1007.6 |
| 20260505011721 | 71 | 216 | 1.7 | 1.7 | 0.00 | 0.00 | 0.00 | 63 | 1007.4 |
| 20260505011219 | 72 | 222 | 1.7 | 2.6 | 0.00 | 0.00 | 0.00 | 62 | 1007.4 |
| 20260505010714 | 72 | 81 | 4.3 | 4.3 | 0.00 | 0.00 | 0.00 | 60 | 1007.5 |
| 20260505010211 | 73 | 162 | 1.7 | 3.5 | 0.00 | 0.00 | 0.00 | 60 | 1007.5 |
| 20260505005707 | 73 | 228 | 1.7 | 1.7 | 0.00 | 0.00 | 0.00 | 60 | 1007.2 |
| 20260505005205 | 73 | 180 | 0.9 | 2.6 | 0.00 | 0.00 | 0.00 | 59 | 1007.2 |
| 20260505004702 | 73 | 207 | 2.6 | 4.3 | 0.00 | 0.00 | 0.00 | 58 | 1007.3 |
| 20260505004158 | 73 | 178 | 1.7 | 2.6 | 0.00 | 0.00 | 0.00 | 60 | 1007.3 |
| 20260505003655 | 74 | 199 | 3.5 | 4.3 | 0.00 | 0.00 | 0.00 | 59 | 1007.1 |
| 20260505003153 | 75 | 235 | 1.7 | 4.3 | 0.00 | 0.00 | 0.00 | 57 | 1007.3 |
| 20260505002649 | 75 | 201 | 1.7 | 5.2 | 0.00 | 0.00 | 0.00 | 58 | 1007.2 |
| 20260505002147 | 75 | 176 | 0.9 | 2.6 | 0.00 | 0.00 | 0.00 | 57 | 1007.2 |
| 20260505001644 | 75 | 192 | 2.6 | 2.6 | 0.00 | 0.00 | 0.00 | 58 | 1007.3 |
| 20260505001141 | 75 | 208 | 1.7 | 3.5 | 0.00 | 0.00 | 0.00 | 57 | 1007.5 |
| 20260505000638 | 76 | 200 | 1.7 | 2.6 | 0.00 | 0.00 | 0.00 | 57 | 1007.4 |
| 20260505000137 | 76 | 204 | 0.9 | 3.5 | 0.00 | 0.00 | 0.00 | 57 | 1007.4 |
| 20260504235632 | 76 | 188 | 1.7 | 2.6 | 0.00 | 0.00 | 0.00 | 58 | 1007.4 |
| 20260504235129 | 76 | 202 | 0.0 | 1.7 | 0.00 | 0.00 | 0.00 | 57 | 1007.4 |
| 20260504234626 | 76 | 161 | 0.0 | 0.9 | 0.00 | 0.00 | 0.00 | 56 | 1007.4 |
| 20260504234123 | 76 | 216 | 5.2 | 7.8 | 0.00 | 0.00 | 0.00 | 54 | 1007.3 |
| 20260504233619 | 76 | 220 | 0.0 | 2.6 | 0.00 | 0.00 | 0.00 | 53 | 1007.3 |
| 20260504233115 | 76 | 172 | 1.7 | 2.6 | 0.00 | 0.00 | 0.00 | 57 | 1007.4 |
| 20260504232613 | 77 | 136 | 0.9 | 3.5 | 0.00 | 0.00 | 0.00 | 55 | 1007.2 |
| 20260504232110 | 77 | 210 | 2.6 | 5.2 | 0.00 | 0.00 | 0.00 | 53 | 1007.4 |
| 20260504231606 | 77 | 200 | 3.5 | 8.7 | 0.00 | 0.00 | 0.00 | 54 | 1007.4 |
| 20260504231102 | 77 | 222 | 3.5 | 3.5 | 0.00 | 0.00 | 0.00 | 53 | 1007.4 |
| 20260504230558 | 78 | 204 | 0.9 | 1.7 | 0.00 | 0.00 | 0.00 | 54 | 1007.5 |
| 20260504230058 | 77 | 200 | 1.7 | 7.8 | 0.00 | 0.00 | 0.00 | 53 | 1007.5 |
| 20260504225555 | 78 | 213 | 0.9 | 3.5 | 0.00 | 0.00 | 0.00 | 54 | 1007.7 |
| 20260504225052 | 78 | 203 | 2.6 | 6.1 | 0.00 | 0.00 | 0.00 | 52 | 1007.8 |
| 20260504224548 | 78 | 190 | 2.6 | 9.6 | 0.00 | 0.00 | 0.00 | 51 | 1007.5 |
| 20260504224046 | 78 | 203 | 1.7 | 5.2 | 0.00 | 0.00 | 0.00 | 53 | 1007.6 |
| 20260504223543 | 79 | 204 | 1.7 | 3.5 | 0.00 | 0.00 | 0.00 | 53 | 1007.6 |
| 20260504223038 | 78 | 196 | 1.7 | 5.2 | 0.00 | 0.00 | 0.00 | 52 | 1007.7 |
| 20260504222535 | 79 | 174 | 3.5 | 4.3 | 0.00 | 0.00 | 0.00 | 51 | 1007.7 |
| 20260504222033 | 79 | 206 | 2.6 | 4.3 | 0.00 | 0.00 | 0.00 | 53 | 1007.7 |
| 20260504221530 | 79 | 209 | 3.5 | 7.0 | 0.00 | 0.00 | 0.00 | 50 | 1007.9 |
| 20260504221026 | 79 | 220 | 5.2 | 7.8 | 0.00 | 0.00 | 0.00 | 51 | 1007.9 |
| 20260504220523 | 79 | 203 | 4.3 | 6.1 | 0.00 | 0.00 | 0.00 | 50 | 1007.7 |
| 20260504220020 | 79 | 213 | 4.3 | 7.8 | 0.00 | 0.00 | 0.00 | 50 | 1007.8 |
| 20260504215516 | 79 | 187 | 1.7 | 11.3 | 0.00 | 0.00 | 0.00 | 50 | 1008.0 |
| 20260504215014 | 80 | 216 | 7.0 | 8.7 | 0.00 | 0.00 | 0.00 | 49 | 1007.9 |
| 20260504214510 | 81 | 209 | 2.6 | 6.1 | 0.00 | 0.00 | 0.00 | 50 | 1008.1 |
| 20260504214006 | 80 | 199 | 4.3 | 7.8 | 0.00 | 0.00 | 0.00 | 49 | 1008.1 |
| 20260504213502 | 80 | 215 | 6.1 | 9.6 | 0.00 | 0.00 | 0.00 | 49 | 1008.1 |
| 20260504213000 | 80 | 209 | 7.8 | 9.6 | 0.00 | 0.00 | 0.00 | 48 | 1008.2 |
| 20260504212456 | 80 | 197 | 2.6 | 11.3 | 0.00 | 0.00 | 0.00 | 48 | 1008.3 |
| 20260504211953 | 80 | 213 | 4.3 | 10.4 | 0.00 | 0.00 | 0.00 | 49 | 1008.5 |
| 20260504211450 | 80 | 191 | 2.6 | 13.9 | 0.00 | 0.00 | 0.00 | 51 | 1008.5 |
| 20260504210947 | 80 | 213 | 6.1 | 14.8 | 0.00 | 0.00 | 0.00 | 49 | 1008.3 |
| 20260504210444 | 81 | 192 | 2.6 | 8.7 | 0.00 | 0.00 | 0.00 | 49 | 1008.6 |
| 20260504205941 | 81 | 220 | 7.0 | 10.4 | 0.00 | 0.00 | 0.00 | 47 | 1008.4 |
| 20260504205438 | 80 | 212 | 4.3 | 11.3 | 0.00 | 0.00 | 0.00 | 48 | 1008.7 |
| 20260504204937 | 80 | 216 | 7.8 | 10.4 | 0.00 | 0.00 | 0.00 | 47 | 1008.8 |
| 20260504204434 | 80 | 206 | 3.5 | 13.0 | 0.00 | 0.00 | 0.00 | 47 | 1008.8 |
| 20260504203934 | 81 | 211 | 3.5 | 11.3 | 0.00 | 0.00 | 0.00 | 47 | 1008.9 |
| 20260504203431 | 81 | 221 | 9.6 | 13.0 | 0.00 | 0.00 | 0.00 | 49 | 1009.2 |
| 20260504202927 | 81 | 212 | 7.8 | 9.6 | 0.00 | 0.00 | 0.00 | 49 | 1009.2 |
| 20260504202423 | 80 | 236 | 7.0 | 13.0 | 0.00 | 0.00 | 0.00 | 48 | 1009.2 |
| 20260504201920 | 80 | 225 | 9.6 | 14.8 | 0.00 | 0.00 | 0.00 | 48 | 1009.3 |
| 20260504201418 | 82 | 222 | 11.3 | 13.0 | 0.00 | 0.00 | 0.00 | 46 | 1009.1 |
| 20260504200915 | 81 | 215 | 13.9 | 15.6 | 0.00 | 0.00 | 0.00 | 47 | 1009.3 |
| 20260504200411 | 81 | 170 | 1.7 | 9.6 | 0.00 | 0.00 | 0.00 | 47 | 1009.4 |
| 20260504195908 | 81 | 219 | 11.3 | 13.0 | 0.00 | 0.00 | 0.00 | 46 | 1009.6 |
| 20260504195404 | 80 | 217 | 6.1 | 13.0 | 0.00 | 0.00 | 0.00 | 49 | 1009.7 |
| 20260504194901 | 81 | 213 | 8.7 | 14.8 | 0.00 | 0.00 | 0.00 | 48 | 1009.7 |
| 20260504194356 | 82 | 187 | 2.6 | 8.7 | 0.00 | 0.00 | 0.00 | 48 | 1009.7 |
| 20260504193852 | 81 | 226 | 8.7 | 14.8 | 0.00 | 0.00 | 0.00 | 45 | 1010.0 |
| 20260504193349 | 80 | 207 | 9.6 | 18.2 | 0.00 | 0.00 | 0.00 | 48 | 1010.2 |
| 20260504192849 | 80 | 218 | 9.6 | 15.6 | 0.00 | 0.00 | 0.00 | 47 | 1010.2 |
| 20260504192346 | 81 | 228 | 6.1 | 14.8 | 0.00 | 0.00 | 0.00 | 49 | 1010.1 |
| 20260504191844 | 80 | 231 | 3.5 | 15.6 | 0.00 | 0.00 | 0.00 | 49 | 1010.1 |
| 20260504191342 | 81 | 219 | 10.4 | 13.9 | 0.00 | 0.00 | 0.00 | 46 | 1010.1 |
| 20260504190837 | 81 | 217 | 3.5 | 10.4 | 0.00 | 0.00 | 0.00 | 49 | 1010.3 |
| 20260504190333 | 80 | 205 | 5.2 | 11.3 | 0.00 | 0.00 | 0.00 | 48 | 1010.4 |
| 20260504185830 | 81 | 202 | 3.5 | 6.1 | 0.00 | 0.00 | 0.00 | 49 | 1010.3 |
| 20260504185327 | 80 | 228 | 5.2 | 9.6 | 0.00 | 0.00 | 0.00 | 48 | 1010.4 |
| 20260504184823 | 80 | 212 | 7.8 | 9.6 | 0.00 | 0.00 | 0.00 | 48 | 1010.6 |
| 20260504184319 | 80 | 207 | 6.1 | 11.3 | 0.00 | 0.00 | 0.00 | 51 | 1010.6 |
| 20260504183815 | 79 | 233 | 7.8 | 13.9 | 0.00 | 0.00 | 0.00 | 49 | 1010.6 |
| 20260504183312 | 79 | 212 | 7.8 | 12.2 | 0.00 | 0.00 | 0.00 | 47 | 1010.8 |
| 20260504182810 | 80 | 207 | 7.8 | 9.6 | 0.00 | 0.00 | 0.00 | 47 | 1010.7 |
| 20260504182307 | 80 | 210 | 7.0 | 13.0 | 0.00 | 0.00 | 0.00 | 47 | 1010.7 |
| 20260504181804 | 79 | 233 | 7.0 | 14.8 | 0.00 | 0.00 | 0.00 | 48 | 1010.9 |
| 20260504181301 | 80 | 238 | 6.1 | 11.3 | 0.00 | 0.00 | 0.00 | 50 | 1010.9 |